Time;durP1;ratioP1;P1;durP2;ratioP2;P2;SDS_P1;SDS_P2;PMS_P1;PMS_P2;Temp;Humidity;BMP_temperature;BMP_pressure;BME280_temperature;BME280_humidity;BME280_pressure;Samples;Min_cycle;Max_cycle;Signal;HPM_P1;HPM_P2
2021/07/06 00:01:16;;;;;;;;;;;23.50;99.90;;;;;;5025299;28;20335;-56
2021/07/06 00:03:42;;;;;;;;;;;23.50;99.90;;;;;;5025735;28;19986;-57
2021/07/06 00:06:08;;;;;;;;;;;23.50;99.90;;;;;;5025216;28;19993;-56
2021/07/06 00:08:33;;;;;;;;;;;23.40;99.90;;;;;;5026093;28;20033;-57
2021/07/06 00:11:00;;;;;;;;;;;23.40;99.90;;;;;;5040168;28;20424;-56
2021/07/06 00:13:25;;;;;;;;;;;23.40;99.90;;;;;;5024980;28;20001;-57
2021/07/06 00:15:51;;;;;;;;;;;23.40;99.90;;;;;;5025138;28;20464;-57
2021/07/06 00:18:16;;;;;;;;;;;23.20;99.90;;;;;;5025215;28;19993;-55
2021/07/06 00:20:42;;;;;;;;;;;23.30;99.90;;;;;;5025601;28;20036;-57
2021/07/06 00:23:07;;;;;;;;;;;23.20;99.90;;;;;;5025765;28;19986;-58
2021/07/06 00:25:33;;;;;;;;;;;23.20;99.90;;;;;;5026135;28;19989;-58
2021/07/06 00:27:59;;;;;;;;;;;23.20;99.90;;;;;;5024566;28;19990;-56
2021/07/06 00:30:25;;;;;;;;;;;23.20;99.90;;;;;;5025380;28;19986;-57
2021/07/06 00:32:51;;;;;;;;;;;23.30;99.90;;;;;;5025306;28;19989;-58
2021/07/06 00:35:17;;;;;;;;;;;23.40;99.90;;;;;;5024804;28;20651;-57
2021/07/06 00:37:44;;;;;;;;;;;23.30;99.90;;;;;;5025380;28;19993;-57
2021/07/06 00:40:10;;;;;;;;;;;23.30;99.90;;;;;;5025049;28;20008;-58
2021/07/06 00:42:39;;;;;;;;;;;23.40;99.90;;;;;;5030028;28;20086;-56
2021/07/06 00:45:05;;;;;;;;;;;23.50;99.90;;;;;;5029383;28;20173;-56
2021/07/06 00:47:34;;;;;;;;;;;23.40;99.90;;;;;;5029540;28;20091;-57
2021/07/06 00:50:00;;;;;;;;;;;23.30;99.90;;;;;;5028930;28;19986;-57
2021/07/06 00:52:27;;;;;;;;;;;23.30;99.90;;;;;;5029185;28;19990;-58
2021/07/06 00:54:54;;;;;;;;;;;23.30;99.90;;;;;;5029140;28;20383;-57
2021/07/06 00:57:28;;;;;;;;;;;23.20;99.90;;;;;;5028569;28;19996;-56
2021/07/06 01:00:14;;;;;;;;;;;23.20;99.90;;;;;;5028703;28;20010;-57
2021/07/06 01:02:40;;;;;;;;;;;23.20;99.90;;;;;;5028741;28;19996;-57
2021/07/06 01:05:07;;;;;;;;;;;23.20;99.90;;;;;;5028722;28;20009;-58
2021/07/06 01:07:33;;;;;;;;;;;23.10;99.90;;;;;;5029507;28;19993;-57
2021/07/06 01:10:00;;;;;;;;;;;23.10;99.90;;;;;;5028665;28;20085;-57
2021/07/06 01:12:25;;;;;;;;;;;23.10;99.90;;;;;;5028512;28;20395;-58
2021/07/06 01:14:51;;;;;;;;;;;23.10;99.90;;;;;;5027803;28;19990;-57
2021/07/06 01:17:24;;;;;;;;;;;23.00;99.90;;;;;;5028532;28;20045;-56
2021/07/06 01:19:49;;;;;;;;;;;23.00;99.90;;;;;;5028266;28;20594;-57
2021/07/06 01:22:36;;;;;;;;;;;23.00;99.90;;;;;;5028538;28;20112;-58
2021/07/06 01:25:04;;;;;;;;;;;22.90;99.90;;;;;;5028564;28;19990;-57
2021/07/06 01:27:30;;;;;;;;;;;22.90;99.90;;;;;;5028996;28;19986;-56
2021/07/06 01:29:56;;;;;;;;;;;22.80;99.90;;;;;;5028341;28;20013;-57
2021/07/06 01:32:23;;;;;;;;;;;22.80;99.90;;;;;;5028526;28;20080;-56
2021/07/06 01:34:50;;;;;;;;;;;22.80;99.90;;;;;;5028199;28;20648;-57
2021/07/06 01:37:19;;;;;;;;;;;22.80;99.90;;;;;;5028515;28;20033;-57
2021/07/06 01:39:46;;;;;;;;;;;22.90;99.90;;;;;;5028634;28;20014;-57
2021/07/06 01:42:15;;;;;;;;;;;22.80;99.90;;;;;;5028012;28;20439;-57
2021/07/06 01:44:41;;;;;;;;;;;22.80;99.90;;;;;;5028041;28;19993;-57
2021/07/06 01:47:06;;;;;;;;;;;22.80;99.90;;;;;;5028534;28;20013;-57
2021/07/06 01:49:33;;;;;;;;;;;22.80;99.90;;;;;;5026588;28;20460;-57
2021/07/06 01:51:59;;;;;;;;;;;22.70;99.90;;;;;;5027732;28;20025;-57
2021/07/06 01:54:24;;;;;;;;;;;22.70;99.90;;;;;;5027637;28;20408;-56
2021/07/06 01:56:50;;;;;;;;;;;22.70;99.90;;;;;;5027515;28;20013;-56
2021/07/06 01:59:15;;;;;;;;;;;22.70;99.90;;;;;;5027900;28;20373;-57
2021/07/06 02:01:42;;;;;;;;;;;22.70;99.90;;;;;;5027978;28;19990;-56
2021/07/06 02:04:07;;;;;;;;;;;22.60;99.90;;;;;;5027033;28;20009;-57
2021/07/06 02:06:33;;;;;;;;;;;22.60;99.90;;;;;;5027959;28;19986;-57
2021/07/06 02:09:00;;;;;;;;;;;22.70;99.90;;;;;;5027525;28;20100;-57
2021/07/06 02:11:25;;;;;;;;;;;22.60;99.90;;;;;;5027118;28;20391;-57
2021/07/06 02:13:52;;;;;;;;;;;22.60;99.90;;;;;;5026915;28;19993;-57
2021/07/06 02:16:19;;;;;;;;;;;22.50;99.90;;;;;;5027936;28;19990;-58
2021/07/06 02:18:45;;;;;;;;;;;22.50;99.90;;;;;;5027851;28;19998;-57
2021/07/06 02:21:12;;;;;;;;;;;22.50;99.90;;;;;;5027685;28;19990;-57
2021/07/06 02:23:38;;;;;;;;;;;22.50;99.90;;;;;;5026191;28;20490;-57
2021/07/06 02:26:04;;;;;;;;;;;22.50;99.90;;;;;;5027033;28;19986;-56
2021/07/06 02:28:30;;;;;;;;;;;22.60;99.90;;;;;;5027613;28;20028;-57
2021/07/06 02:30:56;;;;;;;;;;;22.50;99.90;;;;;;5026044;28;20422;-57
2021/07/06 02:33:22;;;;;;;;;;;22.50;99.90;;;;;;5027121;28;20193;-58
2021/07/06 02:35:49;;;;;;;;;;;22.50;99.90;;;;;;5027503;28;19986;-57
2021/07/06 02:38:16;;;;;;;;;;;22.60;99.90;;;;;;5027778;28;19996;-57
2021/07/06 02:40:41;;;;;;;;;;;22.50;99.90;;;;;;5027104;28;20009;-59
2021/07/06 02:43:08;;;;;;;;;;;22.40;99.90;;;;;;5026808;28;19992;-57
2021/07/06 02:45:34;;;;;;;;;;;22.50;99.90;;;;;;5027149;28;20375;-57
2021/07/06 02:47:59;;;;;;;;;;;22.40;99.90;;;;;;5026828;28;20420;-57
2021/07/06 02:50:25;;;;;;;;;;;22.40;99.90;;;;;;5026899;28;19989;-58
2021/07/06 02:52:51;;;;;;;;;;;22.50;99.90;;;;;;5026981;28;19990;-56
2021/07/06 02:55:18;;;;;;;;;;;22.50;99.90;;;;;;5026686;28;20710;-58
2021/07/06 02:57:45;;;;;;;;;;;22.40;99.90;;;;;;5027635;28;19990;-57
2021/07/06 03:00:10;;;;;;;;;;;22.50;99.90;;;;;;5026830;28;20021;-58
2021/07/06 03:02:39;;;;;;;;;;;22.60;99.90;;;;;;5026451;28;20467;-57
2021/07/06 03:05:05;;;;;;;;;;;22.60;99.90;;;;;;5025555;28;20017;-58
2021/07/06 03:07:31;;;;;;;;;;;22.60;99.90;;;;;;5026702;28;19990;-58
2021/07/06 03:09:56;;;;;;;;;;;22.50;99.90;;;;;;5026698;28;19993;-58
2021/07/06 03:12:23;;;;;;;;;;;22.40;99.90;;;;;;5026376;28;20080;-58
2021/07/06 03:14:48;;;;;;;;;;;22.40;99.90;;;;;;5025961;28;19990;-59
2021/07/06 03:17:14;;;;;;;;;;;22.40;99.90;;;;;;5026958;28;19990;-57
2021/07/06 03:19:39;;;;;;;;;;;22.40;99.90;;;;;;5026299;28;20013;-58
2021/07/06 03:22:06;;;;;;;;;;;22.40;99.90;;;;;;5026006;28;20368;-58
2021/07/06 03:24:31;;;;;;;;;;;22.40;99.90;;;;;;5026245;28;19990;-58
2021/07/06 03:26:57;;;;;;;;;;;22.40;99.90;;;;;;5026379;28;19987;-58
2021/07/06 03:29:23;;;;;;;;;;;22.50;99.90;;;;;;5026415;28;19986;-58
2021/07/06 03:31:49;;;;;;;;;;;22.50;99.90;;;;;;5026251;28;20479;-58
2021/07/06 03:34:15;;;;;;;;;;;22.70;99.90;;;;;;5026445;28;19986;-58
2021/07/06 03:36:41;;;;;;;;;;;22.80;99.90;;;;;;5026056;28;20020;-57
2021/07/06 03:39:06;;;;;;;;;;;22.80;99.90;;;;;;5025766;28;20514;-58
2021/07/06 03:41:32;;;;;;;;;;;22.70;99.90;;;;;;5026343;28;19990;-58
2021/07/06 03:43:58;;;;;;;;;;;22.70;99.90;;;;;;5025429;28;19986;-58
2021/07/06 03:46:26;;;;;;;;;;;22.80;99.90;;;;;;5026399;28;19990;-58
2021/07/06 03:48:52;;;;;;;;;;;22.90;99.90;;;;;;5024533;28;20196;-58
2021/07/06 03:51:18;;;;;;;;;;;22.90;99.90;;;;;;5026052;28;20017;-57
2021/07/06 03:53:43;;;;;;;;;;;23.00;99.90;;;;;;5025132;28;20499;-58
2021/07/06 03:56:09;;;;;;;;;;;23.10;99.90;;;;;;5025283;28;20026;-57
2021/07/06 03:58:35;;;;;;;;;;;23.20;99.90;;;;;;5025440;28;19990;-57
2021/07/06 04:01:02;;;;;;;;;;;23.20;99.90;;;;;;5025967;28;20495;-57
2021/07/06 04:03:27;;;;;;;;;;;23.20;99.90;;;;;;5025306;28;20507;-58
2021/07/06 04:05:53;;;;;;;;;;;23.10;99.90;;;;;;5025628;28;20016;-58
2021/07/06 04:08:18;;;;;;;;;;;23.10;99.90;;;;;;5025660;28;20458;-58
2021/07/06 04:10:44;;;;;;;;;;;23.10;99.90;;;;;;5025708;28;19990;-58
2021/07/06 04:13:09;;;;;;;;;;;23.00;99.90;;;;;;5024732;28;20448;-58
2021/07/06 04:15:35;;;;;;;;;;;22.90;99.90;;;;;;5024859;28;20084;-58
2021/07/06 04:18:01;;;;;;;;;;;22.80;99.90;;;;;;5025765;28;19996;-58
2021/07/06 04:20:27;;;;;;;;;;;22.80;99.90;;;;;;5025239;28;20458;-58
2021/07/06 04:22:53;;;;;;;;;;;22.80;99.90;;;;;;5025398;28;20073;-58
2021/07/06 04:25:18;;;;;;;;;;;22.90;99.90;;;;;;5025211;28;20037;-58
2021/07/06 04:27:44;;;;;;;;;;;22.90;99.90;;;;;;5025240;28;20000;-58
2021/07/06 04:30:10;;;;;;;;;;;23.00;99.90;;;;;;5025351;28;19993;-58
2021/07/06 04:32:37;;;;;;;;;;;22.90;99.90;;;;;;5025494;28;19994;-58
2021/07/06 04:35:03;;;;;;;;;;;22.90;99.90;;;;;;5025615;28;19986;-58
2021/07/06 04:37:28;;;;;;;;;;;23.00;99.90;;;;;;5025325;28;20456;-58
2021/07/06 04:39:55;;;;;;;;;;;23.10;99.90;;;;;;5025310;28;20060;-58
2021/07/06 04:42:21;;;;;;;;;;;23.00;99.90;;;;;;5025430;28;20036;-58
2021/07/06 04:44:47;;;;;;;;;;;23.00;99.90;;;;;;5025108;28;20375;-58
2021/07/06 04:47:12;;;;;;;;;;;23.10;99.90;;;;;;5025073;28;20083;-57
2021/07/06 04:49:38;;;;;;;;;;;23.10;99.90;;;;;;5025344;28;19986;-58
2021/07/06 04:52:04;;;;;;;;;;;23.10;99.90;;;;;;5024856;28;19993;-57
2021/07/06 04:54:29;;;;;;;;;;;23.10;99.90;;;;;;5025842;28;19990;-58
2021/07/06 04:56:55;;;;;;;;;;;23.10;99.90;;;;;;5024773;28;19994;-58
2021/07/06 04:59:21;;;;;;;;;;;23.10;99.90;;;;;;5024683;28;20439;-58
2021/07/06 05:01:46;;;;;;;;;;;23.10;99.90;;;;;;5025132;28;20001;-58
2021/07/06 05:04:12;;;;;;;;;;;23.10;99.90;;;;;;5024401;28;20371;-57
2021/07/06 05:06:39;;;;;;;;;;;22.90;99.90;;;;;;5024886;28;19990;-58
2021/07/06 05:09:05;;;;;;;;;;;22.90;99.90;;;;;;5023279;28;19993;-58
2021/07/06 05:11:31;;;;;;;;;;;23.00;99.90;;;;;;5025644;28;19996;-58
2021/07/06 05:13:56;;;;;;;;;;;22.90;99.90;;;;;;5024213;28;20089;-58
2021/07/06 05:16:22;;;;;;;;;;;22.90;99.90;;;;;;5024827;28;20232;-58
2021/07/06 05:18:47;;;;;;;;;;;22.90;99.90;;;;;;5024678;28;20531;-57
2021/07/06 05:21:13;;;;;;;;;;;22.80;99.90;;;;;;5024778;28;20220;-58
2021/07/06 05:23:38;;;;;;;;;;;22.70;99.90;;;;;;5025123;28;19999;-58
2021/07/06 05:26:05;;;;;;;;;;;22.70;99.90;;;;;;5019374;28;20400;-57
2021/07/06 05:28:31;;;;;;;;;;;22.60;99.90;;;;;;5023802;28;19990;-57
2021/07/06 05:30:56;;;;;;;;;;;22.60;99.90;;;;;;5029562;28;19989;-57
2021/07/06 05:33:22;;;;;;;;;;;22.70;99.90;;;;;;5009447;28;19991;-58
2021/07/06 05:35:47;;;;;;;;;;;22.60;99.90;;;;;;5020948;28;19990;-57
2021/07/06 05:38:13;;;;;;;;;;;22.60;99.90;;;;;;5017419;28;19990;-57
2021/07/06 05:40:40;;;;;;;;;;;22.70;99.90;;;;;;5026957;28;20348;-57
2021/07/06 05:43:07;;;;;;;;;;;22.70;99.90;;;;;;5012984;28;20427;-57
2021/07/06 05:45:36;;;;;;;;;;;22.60;99.90;;;;;;5008991;28;20040;-58
2021/07/06 05:48:01;;;;;;;;;;;22.60;99.90;;;;;;5028987;28;20001;-58
2021/07/06 05:50:27;;;;;;;;;;;22.60;99.90;;;;;;5028296;28;19989;-57
2021/07/06 05:52:52;;;;;;;;;;;22.60;99.90;;;;;;5010813;28;20008;-57
2021/07/06 05:55:19;;;;;;;;;;;22.50;99.90;;;;;;5027184;28;20472;-58
2021/07/06 05:57:44;;;;;;;;;;;22.50;99.90;;;;;;5563922;22;20135;31
2021/07/06 06:00:11;;;;;;;;;;;22.50;99.90;;;;;;5006019;28;20033;-57
2021/07/06 06:02:38;;;;;;;;;;;22.50;99.90;;;;;;5007639;28;19990;-57
2021/07/06 06:05:04;;;;;;;;;;;22.60;99.90;;;;;;5008559;28;19997;-56
2021/07/06 06:07:29;;;;;;;;;;;22.70;99.90;;;;;;5008413;28;19990;-56
2021/07/06 06:09:55;;;;;;;;;;;22.50;99.90;;;;;;5008128;28;19994;-57
2021/07/06 06:12:20;;;;;;;;;;;22.50;99.90;;;;;;5000626;28;19998;-56
2021/07/06 06:14:47;;;;;;;;;;;22.50;99.90;;;;;;4989057;28;19991;-56
2021/07/06 06:17:12;;;;;;;;;;;22.50;99.90;;;;;;4988976;28;19995;-56
2021/07/06 06:19:40;;;;;;;;;;;22.40;99.90;;;;;;4988902;28;20017;-57
2021/07/06 06:22:06;;;;;;;;;;;22.40;99.90;;;;;;4989527;28;20053;-56
2021/07/06 06:24:32;;;;;;;;;;;22.40;99.90;;;;;;4990142;28;20085;-56
2021/07/06 06:26:58;;;;;;;;;;;22.50;99.90;;;;;;4989421;28;20082;-54
2021/07/06 06:29:23;;;;;;;;;;;22.50;99.90;;;;;;4989428;28;20353;-54
2021/07/06 06:31:49;;;;;;;;;;;22.40;99.90;;;;;;4987851;28;19987;-55
2021/07/06 06:34:14;;;;;;;;;;;22.30;99.90;;;;;;4987944;28;20010;-55
2021/07/06 06:36:41;;;;;;;;;;;22.20;99.90;;;;;;4987962;28;20014;-55
2021/07/06 06:39:06;;;;;;;;;;;22.20;99.90;;;;;;4987635;28;20346;-55
2021/07/06 06:41:32;;;;;;;;;;;22.20;99.90;;;;;;4997685;28;20073;-54
2021/07/06 06:43:58;;;;;;;;;;;22.20;99.90;;;;;;4968075;28;20468;-55
2021/07/06 06:46:26;;;;;;;;;;;22.20;99.90;;;;;;4969307;28;20370;-53
2021/07/06 06:48:52;;;;;;;;;;;22.10;99.90;;;;;;4968488;28;20045;-54
2021/07/06 06:51:17;;;;;;;;;;;22.00;99.90;;;;;;4984152;28;20435;-53
2021/07/06 06:53:45;;;;;;;;;;;21.80;99.90;;;;;;4967838;28;19987;-54
2021/07/06 06:56:10;;;;;;;;;;;21.70;99.90;;;;;;4966572;28;19986;-49
2021/07/06 06:58:36;;;;;;;;;;;21.60;99.90;;;;;;4968067;28;20121;-52
2021/07/06 07:01:01;;;;;;;;;;;21.50;99.90;;;;;;4968175;28;20040;-53
2021/07/06 07:03:27;;;;;;;;;;;21.50;99.90;;;;;;4967203;28;19987;-51
2021/07/06 07:05:53;;;;;;;;;;;21.60;99.90;;;;;;4966454;28;20002;-50
2021/07/06 07:08:20;;;;;;;;;;;21.60;99.90;;;;;;4966939;28;19987;-51
2021/07/06 07:10:47;;;;;;;;;;;21.70;99.90;;;;;;4967287;28;19991;-53
2021/07/06 07:13:14;;;;;;;;;;;21.70;99.90;;;;;;4965704;28;20491;-52
2021/07/06 07:15:40;;;;;;;;;;;21.60;99.90;;;;;;4967973;28;20002;-54
2021/07/06 07:18:06;;;;;;;;;;;21.30;99.90;;;;;;4966833;28;19987;-51
2021/07/06 07:20:31;;;;;;;;;;;21.40;99.90;;;;;;4967723;28;20515;-53
2021/07/06 07:22:57;;;;;;;;;;;21.50;99.90;;;;;;4962117;28;19991;-53
2021/07/06 07:25:23;;;;;;;;;;;21.50;99.90;;;;;;4966666;28;20105;-53
2021/07/06 07:27:49;;;;;;;;;;;21.50;99.90;;;;;;4969438;28;20045;-54
2021/07/06 07:30:15;;;;;;;;;;;21.50;99.90;;;;;;4967942;28;19991;-54
2021/07/06 07:32:41;;;;;;;;;;;21.60;99.90;;;;;;4964818;28;19995;-54
2021/07/06 07:35:07;;;;;;;;;;;21.50;99.90;;;;;;4967818;28;20736;-54
2021/07/06 07:37:33;;;;;;;;;;;21.70;99.90;;;;;;4969387;28;19994;-54
2021/07/06 07:39:59;;;;;;;;;;;21.70;99.90;;;;;;4973223;28;20006;-53
2021/07/06 07:42:24;;;;;;;;;;;21.60;99.90;;;;;;4987797;28;20219;-54
2021/07/06 07:44:51;;;;;;;;;;;21.70;99.90;;;;;;4987277;28;19990;-55
2021/07/06 07:47:16;;;;;;;;;;;21.70;99.90;;;;;;4987530;28;19990;-55
2021/07/06 07:49:42;;;;;;;;;;;21.70;99.90;;;;;;4987560;28;19991;-53
2021/07/06 07:52:08;;;;;;;;;;;21.60;99.90;;;;;;4976152;28;20722;-54
2021/07/06 07:54:35;;;;;;;;;;;21.70;99.90;;;;;;4969841;28;19991;-54
2021/07/06 07:57:01;;;;;;;;;;;21.70;99.90;;;;;;4969630;28;20081;-54
2021/07/06 07:59:29;;;;;;;;;;;21.80;99.90;;;;;;4969295;28;20023;-54
2021/07/06 08:01:57;;;;;;;;;;;21.90;99.90;;;;;;4969518;28;20045;-55
2021/07/06 08:04:23;;;;;;;;;;;22.00;99.90;;;;;;4971683;28;20003;-54
2021/07/06 08:06:49;;;;;;;;;;;21.80;99.90;;;;;;4989198;28;19995;-54
2021/07/06 08:09:15;;;;;;;;;;;21.90;99.90;;;;;;4985970;28;19995;-55
2021/07/06 08:11:40;;;;;;;;;;;21.90;99.90;;;;;;4988971;28;20148;-55
2021/07/06 08:14:06;;;;;;;;;;;21.70;99.90;;;;;;4988529;28;19994;-55
2021/07/06 08:16:32;;;;;;;;;;;21.70;99.90;;;;;;4987262;28;19995;-55
2021/07/06 08:18:58;;;;;;;;;;;21.70;99.90;;;;;;4979648;28;19995;-55
2021/07/06 08:21:25;;;;;;;;;;;21.60;99.90;;;;;;4980569;28;20081;-55
2021/07/06 08:23:50;;;;;;;;;;;21.60;99.90;;;;;;4984005;28;19999;-54
2021/07/06 08:26:17;;;;;;;;;;;21.50;99.90;;;;;;4982793;28;20563;-53
2021/07/06 08:28:45;;;;;;;;;;;21.40;99.90;;;;;;4985995;28;20078;-56
2021/07/06 08:31:12;;;;;;;;;;;21.30;99.90;;;;;;4985363;28;19994;-56
2021/07/06 08:33:38;;;;;;;;;;;20.90;99.90;;;;;;4985340;28;19999;-57
2021/07/06 08:36:03;;;;;;;;;;;20.90;99.90;;;;;;4987085;28;19998;-57
2021/07/06 08:38:30;;;;;;;;;;;20.80;99.90;;;;;;4987576;28;20295;-56
2021/07/06 08:40:55;;;;;;;;;;;20.80;99.90;;;;;;4987378;28;20123;-57
2021/07/06 08:43:21;;;;;;;;;;;20.60;99.90;;;;;;4986777;28;19987;-56
2021/07/06 08:45:47;;;;;;;;;;;20.60;99.90;;;;;;4978715;28;20041;-55
2021/07/06 08:48:14;;;;;;;;;;;20.80;99.90;;;;;;4969375;28;20631;-56
2021/07/06 08:50:39;;;;;;;;;;;20.70;99.90;;;;;;4986364;28;19990;-56
2021/07/06 08:53:06;;;;;;;;;;;20.50;99.90;;;;;;4986458;28;20049;-55
2021/07/06 08:55:31;;;;;;;;;;;20.60;99.90;;;;;;4986592;28;19991;-55
2021/07/06 08:57:57;;;;;;;;;;;20.50;99.90;;;;;;4975212;28;20021;-56
2021/07/06 09:00:23;;;;;;;;;;;20.50;99.90;;;;;;5001971;28;20168;-55
2021/07/06 09:02:55;;;;;;;;;;;20.40;99.90;;;;;;4990433;28;19986;-56
2021/07/06 09:05:22;;;;;;;;;;;20.30;99.90;;;;;;4987329;28;19990;-56
2021/07/06 09:07:49;;;;;;;;;;;20.30;99.90;;;;;;4990431;28;20002;-54
2021/07/06 09:10:19;;;;;;;;;;;20.20;99.90;;;;;;4990399;28;20049;-55
2021/07/06 09:12:45;;;;;;;;;;;20.10;99.90;;;;;;4990575;28;20139;-56
2021/07/06 09:15:40;;;;;;;;;;;20.10;99.90;;;;;;4990669;28;19990;-56
2021/07/06 09:18:07;;;;;;;;;;;19.90;99.90;;;;;;4982901;28;20090;-58
2021/07/06 09:20:32;;;;;;;;;;;19.70;99.90;;;;;;4988082;28;20026;-55
2021/07/06 09:23:16;;;;;;;;;;;19.80;99.90;;;;;;4988170;28;19991;-57
2021/07/06 09:25:41;;;;;;;;;;;19.80;99.90;;;;;;4987819;28;19998;-58
2021/07/06 09:28:20;;;;;;;;;;;19.90;99.90;;;;;;4973472;28;20022;-57
2021/07/06 09:30:45;;;;;;;;;;;19.80;99.90;;;;;;4975730;28;20467;-55
2021/07/06 09:33:24;;;;;;;;;;;19.70;99.90;;;;;;4975735;28;20085;-56
2021/07/06 09:35:49;;;;;;;;;;;19.90;99.90;;;;;;4976925;28;20002;-55
2021/07/06 09:38:15;;;;;;;;;;;20.00;99.90;;;;;;4976134;28;19998;-56
2021/07/06 09:40:51;;;;;;;;;;;19.70;99.90;;;;;;4975415;28;20474;-55
2021/07/06 09:43:16;;;;;;;;;;;19.60;99.90;;;;;;4965480;28;20061;-56
2021/07/06 09:45:46;;;;;;;;;;;19.70;99.90;;;;;;4968430;28;20061;-56
2021/07/06 09:48:12;;;;;;;;;;;19.50;99.90;;;;;;4984934;28;19995;-56
2021/07/06 09:50:38;;;;;;;;;;;19.70;99.90;;;;;;4987656;28;19987;-57
2021/07/06 09:53:03;;;;;;;;;;;19.80;99.90;;;;;;4982232;28;19995;-55
2021/07/06 09:55:32;;;;;;;;;;;19.80;99.90;;;;;;4989913;28;20419;-56
2021/07/06 09:57:58;;;;;;;;;;;19.90;99.90;;;;;;4982265;28;20497;-56
2021/07/06 10:00:26;;;;;;;;;;;20.10;99.90;;;;;;4984620;28;20113;-55
2021/07/06 10:02:58;;;;;;;;;;;20.10;99.90;;;;;;4987266;28;19998;-56
2021/07/06 10:05:26;;;;;;;;;;;19.90;99.90;;;;;;4978960;28;20030;-55
2021/07/06 10:07:52;;;;;;;;;;;20.00;99.90;;;;;;4987237;28;19994;-55
2021/07/06 10:10:19;;;;;;;;;;;20.00;99.90;;;;;;4983066;28;20017;-55
2021/07/06 10:12:46;;;;;;;;;;;20.00;99.90;;;;;;4987055;28;20152;-54
2021/07/06 10:15:13;;;;;;;;;;;20.10;99.90;;;;;;4987449;28;20068;-54
2021/07/06 10:17:39;;;;;;;;;;;20.10;99.90;;;;;;4990340;28;19993;-56
2021/07/06 10:20:06;;;;;;;;;;;20.20;99.90;;;;;;4974289;28;20010;-56
2021/07/06 10:22:31;;;;;;;;;;;20.10;99.90;;;;;;4987690;28;20066;-56
2021/07/06 10:24:59;;;;;;;;;;;20.10;99.90;;;;;;4996929;28;20073;-55
2021/07/06 10:27:26;;;;;;;;;;;20.20;99.90;;;;;;4987743;28;20141;-57
2021/07/06 10:30:12;;;;;;;;;;;20.40;99.90;;;;;;4978666;28;20504;-56
2021/07/06 10:32:39;;;;;;;;;;;20.50;99.90;;;;;;4981886;28;20569;-56
2021/07/06 10:35:05;;;;;;;;;;;20.40;99.90;;;;;;4985438;28;19998;-56
2021/07/06 10:37:31;;;;;;;;;;;20.50;99.90;;;;;;4985756;28;19994;-56
2021/07/06 10:40:15;;;;;;;;;;;20.50;99.90;;;;;;4968953;28;20010;-55
2021/07/06 10:42:40;;;;;;;;;;;20.50;99.90;;;;;;4981793;28;19990;-56
2021/07/06 10:45:12;;;;;;;;;;;20.60;99.90;;;;;;4984070;28;20598;-56
2021/07/06 10:47:38;;;;;;;;;;;20.50;99.90;;;;;;4985801;28;20030;-55
2021/07/06 10:50:36;;;;;;;;;;;20.50;99.90;;;;;;4985105;28;19987;-55
2021/07/06 10:53:18;;;;;;;;;;;20.30;99.90;;;;;;4959030;28;20491;-56
2021/07/06 10:55:45;;;;;;;;;;;20.30;99.90;;;;;;4982755;28;19991;-56
2021/07/06 10:58:10;;;;;;;;;;;20.20;99.90;;;;;;4978330;28;19995;-56
2021/07/06 11:00:43;;;;;;;;;;;20.20;99.90;;;;;;4985369;28;20095;-56
2021/07/06 11:03:15;;;;;;;;;;;20.00;99.90;;;;;;4985789;28;20001;-55
2021/07/06 11:05:43;;;;;;;;;;;20.10;99.90;;;;;;4984380;28;20097;-57
2021/07/06 11:08:29;;;;;;;;;;;20.20;99.90;;;;;;4981566;28;19990;-57
2021/07/06 11:10:55;;;;;;;;;;;20.10;99.90;;;;;;4979162;28;20395;-56
2021/07/06 11:13:21;;;;;;;;;;;20.20;99.90;;;;;;4986367;28;19995;-55
2021/07/06 11:15:47;;;;;;;;;;;20.20;99.90;;;;;;4985645;28;20059;-55
2021/07/06 11:18:13;;;;;;;;;;;20.20;99.90;;;;;;4984621;28;19994;-55
2021/07/06 11:20:46;;;;;;;;;;;20.30;99.90;;;;;;4986451;28;20013;-55
2021/07/06 11:23:30;;;;;;;;;;;20.20;99.90;;;;;;4987183;28;20455;-55
2021/07/06 11:26:06;;;;;;;;;;;20.20;99.90;;;;;;4987254;28;20044;-54
2021/07/06 11:28:47;;;;;;;;;;;20.20;99.90;;;;;;4987258;28;19994;-56
2021/07/06 11:31:19;;;;;;;;;;;20.20;99.90;;;;;;4987603;28;20010;-54
2021/07/06 11:33:45;;;;;;;;;;;20.40;99.90;;;;;;4984812;28;19999;-55
2021/07/06 11:36:18;;;;;;;;;;;20.40;99.90;;;;;;4983553;28;20041;-55
2021/07/06 11:38:45;;;;;;;;;;;20.40;99.90;;;;;;4985776;28;20085;-54
2021/07/06 11:41:12;;;;;;;;;;;20.50;99.90;;;;;;4986114;28;20044;-55
2021/07/06 11:43:38;;;;;;;;;;;20.50;99.90;;;;;;4983229;28;19995;-55
2021/07/06 11:46:05;;;;;;;;;;;20.40;99.90;;;;;;4986337;28;20069;-55
2021/07/06 11:48:31;;;;;;;;;;;20.40;99.90;;;;;;4986990;28;19991;-54
2021/07/06 11:51:00;;;;;;;;;;;20.40;99.90;;;;;;4983208;28;20005;-54
2021/07/06 11:53:27;;;;;;;;;;;20.30;99.90;;;;;;4986589;28;20002;-55
2021/07/06 11:55:53;;;;;;;;;;;20.40;99.90;;;;;;4985734;28;19991;-55
2021/07/06 11:58:23;;;;;;;;;;;20.40;99.90;;;;;;4984448;28;20003;-55
2021/07/06 12:00:49;;;;;;;;;;;20.30;99.90;;;;;;4983618;28;20377;-56
2021/07/06 12:03:19;;;;;;;;;;;20.40;99.90;;;;;;4983267;28;19998;-55
2021/07/06 12:05:52;;;;;;;;;;;20.40;99.90;;;;;;4986261;28;20415;-55
2021/07/06 12:08:21;;;;;;;;;;;20.40;99.90;;;;;;4985457;28;21152;-55
2021/07/06 12:10:51;;;;;;;;;;;20.50;99.90;;;;;;4984985;28;19999;-55
2021/07/06 12:13:17;;;;;;;;;;;20.50;99.90;;;;;;4985556;28;20002;-56
2021/07/06 12:15:45;;;;;;;;;;;20.40;99.90;;;;;;4986431;28;19990;-55
2021/07/06 12:18:12;;;;;;;;;;;20.50;99.90;;;;;;4984379;28;20030;-55
2021/07/06 12:20:37;;;;;;;;;;;20.50;99.90;;;;;;4986421;28;20037;-54
2021/07/06 12:23:03;;;;;;;;;;;20.60;99.90;;;;;;4982878;28;19998;-55
2021/07/06 12:25:28;;;;;;;;;;;20.60;99.90;;;;;;4985412;28;20069;-56
2021/07/06 12:27:54;;;;;;;;;;;20.60;99.90;;;;;;4984950;28;20026;-56
2021/07/06 12:30:20;;;;;;;;;;;20.50;99.90;;;;;;4981782;28;19991;-56
2021/07/06 12:32:45;;;;;;;;;;;20.50;99.90;;;;;;4986097;28;19990;-56
2021/07/06 12:35:11;;;;;;;;;;;20.50;99.90;;;;;;4979493;28;19999;-56
2021/07/06 12:37:37;;;;;;;;;;;20.30;99.90;;;;;;4987922;28;20006;-55
2021/07/06 12:40:07;;;;;;;;;;;20.10;99.90;;;;;;4986323;28;21107;-56
2021/07/06 12:42:37;;;;;;;;;;;20.20;99.90;;;;;;4990315;28;20030;-55
2021/07/06 12:45:06;;;;;;;;;;;20.20;99.90;;;;;;4989248;28;19998;-56
2021/07/06 12:47:40;;;;;;;;;;;20.20;99.90;;;;;;4989600;28;19995;-55
2021/07/06 12:50:11;;;;;;;;;;;20.30;99.90;;;;;;4987062;28;20490;-55
2021/07/06 12:52:39;;;;;;;;;;;20.30;99.90;;;;;;4989665;28;19999;-56
2021/07/06 12:55:08;;;;;;;;;;;20.20;99.90;;;;;;4986073;28;20023;-56
2021/07/06 12:57:34;;;;;;;;;;;20.10;99.90;;;;;;4984397;28;20368;-56
2021/07/06 13:00:26;;;;;;;;;;;20.10;99.90;;;;;;4985357;28;20010;-55
2021/07/06 13:03:04;;;;;;;;;;;20.10;99.90;;;;;;4983364;28;20088;-56
2021/07/06 13:05:32;;;;;;;;;;;19.90;99.90;;;;;;4985463;28;20089;-56
2021/07/06 13:08:00;;;;;;;;;;;19.50;99.90;;;;;;4986401;28;20023;-55
2021/07/06 13:10:34;;;;;;;;;;;19.40;99.90;;;;;;4986945;28;20002;-55
2021/07/06 13:13:07;;;;;;;;;;;19.10;99.90;;;;;;4985768;28;19991;-55
2021/07/06 13:15:36;;;;;;;;;;;18.90;99.90;;;;;;4988496;28;19998;-55
2021/07/06 13:18:03;;;;;;;;;;;19.10;99.90;;;;;;4983702;28;19994;-55
2021/07/06 13:20:31;;;;;;;;;;;19.00;99.90;;;;;;4988996;28;20836;-56
2021/07/06 13:22:57;;;;;;;;;;;18.70;99.90;;;;;;4987227;28;19998;-56
2021/07/06 13:25:23;;;;;;;;;;;18.80;99.90;;;;;;4988551;28;20001;-55
2021/07/06 13:27:49;;;;;;;;;;;18.60;99.90;;;;;;4984497;28;20052;-55
2021/07/06 13:30:16;;;;;;;;;;;18.40;99.90;;;;;;4987615;28;20471;-56
2021/07/06 13:32:43;;;;;;;;;;;18.40;99.90;;;;;;4987657;28;19998;-56
2021/07/06 13:35:10;;;;;;;;;;;18.40;99.90;;;;;;4987315;28;20469;-57
2021/07/06 13:37:36;;;;;;;;;;;18.40;99.90;;;;;;4985988;28;19991;-57
2021/07/06 13:40:07;;;;;;;;;;;18.00;99.90;;;;;;4986521;28;20509;-58
2021/07/06 13:42:34;;;;;;;;;;;18.10;99.90;;;;;;4987412;28;19990;-57
2021/07/06 13:44:59;;;;;;;;;;;17.80;99.90;;;;;;4986058;28;19998;-57
2021/07/06 13:47:25;;;;;;;;;;;17.70;99.90;;;;;;4985136;28;19994;-57
2021/07/06 13:49:51;;;;;;;;;;;17.40;99.90;;;;;;4984694;28;19998;-58
2021/07/06 13:52:17;;;;;;;;;;;17.60;99.90;;;;;;4981544;28;20058;-57
2021/07/06 13:54:44;;;;;;;;;;;17.70;99.90;;;;;;4986464;28;20100;-57
2021/07/06 13:57:12;;;;;;;;;;;17.90;99.90;;;;;;4986652;28;19999;-57
2021/07/06 13:59:38;;;;;;;;;;;18.00;99.90;;;;;;4984583;28;20048;-57
2021/07/06 14:02:04;;;;;;;;;;;17.90;99.90;;;;;;4985269;28;19999;-57
2021/07/06 14:04:30;;;;;;;;;;;17.90;99.90;;;;;;4985276;28;20461;-57
2021/07/06 14:06:56;;;;;;;;;;;17.80;99.90;;;;;;4986428;28;20467;-57
2021/07/06 14:09:22;;;;;;;;;;;17.70;99.90;;;;;;4988208;28;19998;-57
2021/07/06 14:11:48;;;;;;;;;;;17.80;99.90;;;;;;4989009;28;19998;-57
2021/07/06 14:14:13;;;;;;;;;;;17.80;99.90;;;;;;4988766;28;19994;-57
2021/07/06 14:16:39;;;;;;;;;;;17.90;99.90;;;;;;4988769;28;19995;-57